sensor_id;sensor_type;location;lat;lon;timestamp;P1;durP1;ratioP1;P2;durP2;ratioP2
26040;SDS011;13816;53.628;9.950;2023-04-25T00:00:34;9.43;;;4.70;;
26040;SDS011;13816;53.628;9.950;2023-04-25T00:03:01;8.70;;;5.97;;
26040;SDS011;13816;53.628;9.950;2023-04-25T00:05:29;13.07;;;6.53;;
26040;SDS011;13816;53.628;9.950;2023-04-25T00:07:57;13.20;;;5.30;;
26040;SDS011;13816;53.628;9.950;2023-04-25T00:10:25;18.40;;;6.43;;
26040;SDS011;13816;53.628;9.950;2023-04-25T00:12:52;12.53;;;5.63;;
26040;SDS011;13816;53.628;9.950;2023-04-25T00:15:19;15.60;;;5.33;;
26040;SDS011;13816;53.628;9.950;2023-04-25T00:17:47;20.77;;;6.40;;
26040;SDS011;13816;53.628;9.950;2023-04-25T00:20:14;22.33;;;5.20;;
26040;SDS011;13816;53.628;9.950;2023-04-25T00:22:42;27.77;;;5.47;;
26040;SDS011;13816;53.628;9.950;2023-04-25T00:25:10;23.87;;;5.87;;
26040;SDS011;13816;53.628;9.950;2023-04-25T00:27:37;20.33;;;6.00;;
26040;SDS011;13816;53.628;9.950;2023-04-25T00:30:05;28.43;;;7.67;;
26040;SDS011;13816;53.628;9.950;2023-04-25T00:32:33;25.27;;;5.70;;
26040;SDS011;13816;53.628;9.950;2023-04-25T00:35:00;19.63;;;4.90;;
26040;SDS011;13816;53.628;9.950;2023-04-25T00:37:27;38.13;;;5.67;;
26040;SDS011;13816;53.628;9.950;2023-04-25T00:39:55;30.67;;;5.90;;
26040;SDS011;13816;53.628;9.950;2023-04-25T00:42:23;18.47;;;4.77;;
26040;SDS011;13816;53.628;9.950;2023-04-25T00:44:51;28.23;;;5.07;;
26040;SDS011;13816;53.628;9.950;2023-04-25T00:47:19;18.23;;;4.20;;
26040;SDS011;13816;53.628;9.950;2023-04-25T00:49:46;39.50;;;6.47;;
26040;SDS011;13816;53.628;9.950;2023-04-25T00:52:14;20.10;;;4.70;;
26040;SDS011;13816;53.628;9.950;2023-04-25T00:54:41;20.70;;;5.30;;
26040;SDS011;13816;53.628;9.950;2023-04-25T00:57:08;32.87;;;6.40;;
26040;SDS011;13816;53.628;9.950;2023-04-25T00:59:37;21.13;;;4.60;;
26040;SDS011;13816;53.628;9.950;2023-04-25T01:02:05;27.77;;;5.90;;
26040;SDS011;13816;53.628;9.950;2023-04-25T01:04:33;32.10;;;5.70;;
26040;SDS011;13816;53.628;9.950;2023-04-25T01:07:00;21.03;;;4.77;;
26040;SDS011;13816;53.628;9.950;2023-04-25T01:09:30;22.33;;;5.57;;
26040;SDS011;13816;53.628;9.950;2023-04-25T01:12:00;28.00;;;7.03;;
26040;SDS011;13816;53.628;9.950;2023-04-25T01:14:28;28.40;;;6.63;;
26040;SDS011;13816;53.628;9.950;2023-04-25T01:16:56;20.83;;;5.10;;
26040;SDS011;13816;53.628;9.950;2023-04-25T01:19:23;39.10;;;6.40;;
26040;SDS011;13816;53.628;9.950;2023-04-25T01:21:51;30.10;;;5.70;;
26040;SDS011;13816;53.628;9.950;2023-04-25T01:24:18;33.20;;;5.70;;
26040;SDS011;13816;53.628;9.950;2023-04-25T01:27:00;25.33;;;5.27;;
26040;SDS011;13816;53.628;9.950;2023-04-25T01:33:41;19.80;;;5.43;;
26040;SDS011;13816;53.628;9.950;2023-04-25T01:36:09;19.33;;;5.40;;
26040;SDS011;13816;53.628;9.950;2023-04-25T01:38:36;31.37;;;6.40;;
26040;SDS011;13816;53.628;9.950;2023-04-25T01:41:04;25.77;;;5.93;;
26040;SDS011;13816;53.628;9.950;2023-04-25T01:43:32;27.13;;;6.27;;
26040;SDS011;13816;53.628;9.950;2023-04-25T01:45:59;22.47;;;5.60;;
26040;SDS011;13816;53.628;9.950;2023-04-25T01:48:27;24.10;;;5.77;;
26040;SDS011;13816;53.628;9.950;2023-04-25T01:50:54;20.33;;;4.50;;
26040;SDS011;13816;53.628;9.950;2023-04-25T01:53:22;20.17;;;5.30;;
26040;SDS011;13816;53.628;9.950;2023-04-25T01:55:49;22.53;;;4.67;;
26040;SDS011;13816;53.628;9.950;2023-04-25T01:58:20;22.27;;;5.90;;
26040;SDS011;13816;53.628;9.950;2023-04-25T02:01:17;32.77;;;4.53;;
26040;SDS011;13816;53.628;9.950;2023-04-25T02:03:56;16.23;;;4.83;;
26040;SDS011;13816;53.628;9.950;2023-04-25T02:06:30;26.00;;;6.10;;
26040;SDS011;13816;53.628;9.950;2023-04-25T02:08:57;17.73;;;5.33;;
26040;SDS011;13816;53.628;9.950;2023-04-25T02:14:59;25.23;;;5.40;;
26040;SDS011;13816;53.628;9.950;2023-04-25T02:17:38;23.83;;;4.60;;
26040;SDS011;13816;53.628;9.950;2023-04-25T02:20:05;19.93;;;5.30;;
26040;SDS011;13816;53.628;9.950;2023-04-25T02:22:33;20.27;;;5.70;;
26040;SDS011;13816;53.628;9.950;2023-04-25T02:25:04;24.70;;;4.70;;
26040;SDS011;13816;53.628;9.950;2023-04-25T02:27:35;23.90;;;5.00;;
26040;SDS011;13816;53.628;9.950;2023-04-25T02:30:02;28.03;;;6.10;;
26040;SDS011;13816;53.628;9.950;2023-04-25T02:32:32;31.57;;;5.47;;
26040;SDS011;13816;53.628;9.950;2023-04-25T02:35:03;25.97;;;5.83;;
26040;SDS011;13816;53.628;9.950;2023-04-25T02:37:31;28.53;;;5.33;;
26040;SDS011;13816;53.628;9.950;2023-04-25T02:39:59;25.90;;;5.40;;
26040;SDS011;13816;53.628;9.950;2023-04-25T02:42:26;31.43;;;5.87;;
26040;SDS011;13816;53.628;9.950;2023-04-25T02:44:56;14.87;;;4.90;;
26040;SDS011;13816;53.628;9.950;2023-04-25T02:47:23;20.87;;;6.00;;
26040;SDS011;13816;53.628;9.950;2023-04-25T02:49:51;22.70;;;4.50;;
26040;SDS011;13816;53.628;9.950;2023-04-25T02:52:18;23.00;;;4.93;;
26040;SDS011;13816;53.628;9.950;2023-04-25T02:54:52;25.13;;;5.00;;
26040;SDS011;13816;53.628;9.950;2023-04-25T02:57:19;30.50;;;5.80;;
26040;SDS011;13816;53.628;9.950;2023-04-25T02:59:47;19.13;;;4.60;;
26040;SDS011;13816;53.628;9.950;2023-04-25T03:02:14;23.70;;;4.60;;
26040;SDS011;13816;53.628;9.950;2023-04-25T03:04:42;24.40;;;5.37;;
26040;SDS011;13816;53.628;9.950;2023-04-25T03:07:09;20.20;;;5.90;;
26040;SDS011;13816;53.628;9.950;2023-04-25T03:09:37;15.27;;;4.50;;
26040;SDS011;13816;53.628;9.950;2023-04-25T03:12:06;28.73;;;4.97;;
26040;SDS011;13816;53.628;9.950;2023-04-25T03:16:04;24.60;;;4.83;;
26040;SDS011;13816;53.628;9.950;2023-04-25T03:28:15;15.13;;;4.60;;
26040;SDS011;13816;53.628;9.950;2023-04-25T03:45:34;20.10;;;4.80;;
26040;SDS011;13816;53.628;9.950;2023-04-25T03:49:22;31.53;;;4.60;;
26040;SDS011;13816;53.628;9.950;2023-04-25T03:51:59;20.53;;;4.00;;
26040;SDS011;13816;53.628;9.950;2023-04-25T03:54:30;19.43;;;4.70;;
26040;SDS011;13816;53.628;9.950;2023-04-25T03:57:03;17.23;;;3.90;;
26040;SDS011;13816;53.628;9.950;2023-04-25T03:59:34;24.43;;;4.80;;
26040;SDS011;13816;53.628;9.950;2023-04-25T04:02:02;34.43;;;4.87;;
26040;SDS011;13816;53.628;9.950;2023-04-25T04:04:31;17.17;;;4.40;;
26040;SDS011;13816;53.628;9.950;2023-04-25T04:06:59;20.40;;;4.00;;
26040;SDS011;13816;53.628;9.950;2023-04-25T04:09:30;20.93;;;4.60;;
26040;SDS011;13816;53.628;9.950;2023-04-25T04:12:02;20.80;;;4.30;;
26040;SDS011;13816;53.628;9.950;2023-04-25T04:14:32;21.80;;;3.73;;
26040;SDS011;13816;53.628;9.950;2023-04-25T04:16:59;15.07;;;3.53;;
26040;SDS011;13816;53.628;9.950;2023-04-25T04:19:27;13.70;;;3.57;;
26040;SDS011;13816;53.628;9.950;2023-04-25T04:22:15;21.93;;;5.00;;
26040;SDS011;13816;53.628;9.950;2023-04-25T04:24:42;24.63;;;4.23;;
26040;SDS011;13816;53.628;9.950;2023-04-25T04:27:19;21.83;;;4.93;;
26040;SDS011;13816;53.628;9.950;2023-04-25T04:29:52;12.93;;;3.40;;
26040;SDS011;13816;53.628;9.950;2023-04-25T04:32:25;13.20;;;4.20;;
26040;SDS011;13816;53.628;9.950;2023-04-25T04:34:54;19.30;;;4.10;;
26040;SDS011;13816;53.628;9.950;2023-04-25T04:37:24;25.53;;;5.50;;
26040;SDS011;13816;53.628;9.950;2023-04-25T04:39:52;21.60;;;3.70;;
26040;SDS011;13816;53.628;9.950;2023-04-25T04:42:27;18.77;;;3.93;;
26040;SDS011;13816;53.628;9.950;2023-04-25T04:45:09;18.33;;;3.33;;
26040;SDS011;13816;53.628;9.950;2023-04-25T04:47:56;11.77;;;3.00;;
26040;SDS011;13816;53.628;9.950;2023-04-25T04:50:47;17.93;;;3.80;;
26040;SDS011;13816;53.628;9.950;2023-04-25T04:53:40;29.47;;;3.97;;
26040;SDS011;13816;53.628;9.950;2023-04-25T04:56:28;15.57;;;3.13;;
26040;SDS011;13816;53.628;9.950;2023-04-25T04:59:15;23.10;;;3.50;;
26040;SDS011;13816;53.628;9.950;2023-04-25T05:01:58;17.30;;;4.20;;
26040;SDS011;13816;53.628;9.950;2023-04-25T05:04:45;27.60;;;3.50;;
26040;SDS011;13816;53.628;9.950;2023-04-25T05:07:33;17.07;;;3.13;;
26040;SDS011;13816;53.628;9.950;2023-04-25T05:10:08;15.80;;;3.80;;
26040;SDS011;13816;53.628;9.950;2023-04-25T05:12:38;15.67;;;3.60;;
26040;SDS011;13816;53.628;9.950;2023-04-25T05:15:22;9.20;;;2.40;;
26040;SDS011;13816;53.628;9.950;2023-04-25T05:18:25;21.33;;;3.83;;
26040;SDS011;13816;53.628;9.950;2023-04-25T05:21:03;19.20;;;3.33;;
26040;SDS011;13816;53.628;9.950;2023-04-25T05:23:46;17.93;;;3.27;;
26040;SDS011;13816;53.628;9.950;2023-04-25T05:26:32;16.53;;;3.17;;
26040;SDS011;13816;53.628;9.950;2023-04-25T05:29:28;20.00;;;3.87;;
26040;SDS011;13816;53.628;9.950;2023-04-25T05:32:14;15.50;;;4.00;;
26040;SDS011;13816;53.628;9.950;2023-04-25T05:34:42;19.23;;;3.30;;
26040;SDS011;13816;53.628;9.950;2023-04-25T05:37:18;12.00;;;3.47;;
26040;SDS011;13816;53.628;9.950;2023-04-25T05:39:56;12.80;;;3.40;;
26040;SDS011;13816;53.628;9.950;2023-04-25T05:42:44;17.70;;;4.13;;
26040;SDS011;13816;53.628;9.950;2023-04-25T05:45:32;26.97;;;4.23;;
26040;SDS011;13816;53.628;9.950;2023-04-25T05:48:17;20.27;;;4.53;;
26040;SDS011;13816;53.628;9.950;2023-04-25T05:51:17;29.20;;;4.60;;
26040;SDS011;13816;53.628;9.950;2023-04-25T05:53:44;21.10;;;4.67;;
26040;SDS011;13816;53.628;9.950;2023-04-25T05:56:13;30.03;;;4.97;;
26040;SDS011;13816;53.628;9.950;2023-04-25T05:58:41;12.87;;;4.00;;
26040;SDS011;13816;53.628;9.950;2023-04-25T06:01:11;21.37;;;3.97;;
26040;SDS011;13816;53.628;9.950;2023-04-25T06:03:38;11.87;;;3.87;;
26040;SDS011;13816;53.628;9.950;2023-04-25T06:06:09;13.93;;;4.07;;
26040;SDS011;13816;53.628;9.950;2023-04-25T06:08:37;25.23;;;4.73;;
26040;SDS011;13816;53.628;9.950;2023-04-25T06:11:04;15.33;;;3.80;;
26040;SDS011;13816;53.628;9.950;2023-04-25T06:13:32;17.03;;;3.50;;
26040;SDS011;13816;53.628;9.950;2023-04-25T06:16:00;18.57;;;4.63;;
26040;SDS011;13816;53.628;9.950;2023-04-25T06:18:28;23.97;;;3.97;;
26040;SDS011;13816;53.628;9.950;2023-04-25T06:20:55;17.77;;;3.97;;
26040;SDS011;13816;53.628;9.950;2023-04-25T06:23:23;13.23;;;3.60;;
26040;SDS011;13816;53.628;9.950;2023-04-25T06:25:56;14.97;;;3.57;;
26040;SDS011;13816;53.628;9.950;2023-04-25T06:28:25;22.83;;;3.50;;
26040;SDS011;13816;53.628;9.950;2023-04-25T06:30:53;18.00;;;5.37;;
26040;SDS011;13816;53.628;9.950;2023-04-25T06:33:21;15.87;;;3.60;;
26040;SDS011;13816;53.628;9.950;2023-04-25T06:35:51;12.47;;;3.60;;
26040;SDS011;13816;53.628;9.950;2023-04-25T06:38:23;20.63;;;4.50;;
26040;SDS011;13816;53.628;9.950;2023-04-25T06:40:51;11.40;;;3.60;;
26040;SDS011;13816;53.628;9.950;2023-04-25T06:43:19;22.13;;;3.70;;
26040;SDS011;13816;53.628;9.950;2023-04-25T06:46:02;20.03;;;4.00;;
26040;SDS011;13816;53.628;9.950;2023-04-25T06:48:32;17.83;;;3.90;;
26040;SDS011;13816;53.628;9.950;2023-04-25T06:51:00;26.13;;;3.30;;
26040;SDS011;13816;53.628;9.950;2023-04-25T06:53:27;17.10;;;3.67;;
26040;SDS011;13816;53.628;9.950;2023-04-25T06:56:01;18.83;;;3.57;;
26040;SDS011;13816;53.628;9.950;2023-04-25T06:58:43;15.00;;;3.77;;
26040;SDS011;13816;53.628;9.950;2023-04-25T07:01:21;12.17;;;3.93;;
26040;SDS011;13816;53.628;9.950;2023-04-25T07:03:48;10.90;;;2.93;;
26040;SDS011;13816;53.628;9.950;2023-04-25T07:06:17;15.67;;;2.90;;
26040;SDS011;13816;53.628;9.950;2023-04-25T07:08:45;13.70;;;3.20;;
26040;SDS011;13816;53.628;9.950;2023-04-25T07:11:12;13.90;;;2.87;;
26040;SDS011;13816;53.628;9.950;2023-04-25T07:13:40;8.90;;;2.83;;
26040;SDS011;13816;53.628;9.950;2023-04-25T07:16:07;13.87;;;3.90;;
26040;SDS011;13816;53.628;9.950;2023-04-25T07:18:35;19.67;;;3.40;;
26040;SDS011;13816;53.628;9.950;2023-04-25T07:21:03;20.53;;;3.30;;
26040;SDS011;13816;53.628;9.950;2023-04-25T07:23:32;17.77;;;3.63;;
26040;SDS011;13816;53.628;9.950;2023-04-25T07:26:09;8.03;;;2.80;;
26040;SDS011;13816;53.628;9.950;2023-04-25T07:28:45;13.37;;;3.37;;
26040;SDS011;13816;53.628;9.950;2023-04-25T07:31:18;9.90;;;3.30;;
26040;SDS011;13816;53.628;9.950;2023-04-25T07:33:46;12.83;;;3.37;;
26040;SDS011;13816;53.628;9.950;2023-04-25T07:36:14;15.47;;;4.03;;
26040;SDS011;13816;53.628;9.950;2023-04-25T07:38:43;15.33;;;2.90;;
26040;SDS011;13816;53.628;9.950;2023-04-25T07:41:12;8.97;;;2.80;;
26040;SDS011;13816;53.628;9.950;2023-04-25T07:43:40;10.73;;;3.07;;
26040;SDS011;13816;53.628;9.950;2023-04-25T07:46:07;9.30;;;2.60;;
26040;SDS011;13816;53.628;9.950;2023-04-25T07:48:36;15.43;;;2.97;;
26040;SDS011;13816;53.628;9.950;2023-04-25T07:51:03;11.60;;;2.60;;
26040;SDS011;13816;53.628;9.950;2023-04-25T07:53:33;17.00;;;3.00;;
26040;SDS011;13816;53.628;9.950;2023-04-25T07:56:08;12.90;;;2.67;;
26040;SDS011;13816;53.628;9.950;2023-04-25T07:58:38;8.53;;;2.67;;
26040;SDS011;13816;53.628;9.950;2023-04-25T08:01:09;10.87;;;3.23;;
26040;SDS011;13816;53.628;9.950;2023-04-25T08:04:05;14.63;;;2.77;;
26040;SDS011;13816;53.628;9.950;2023-04-25T08:06:49;8.80;;;2.77;;
26040;SDS011;13816;53.628;9.950;2023-04-25T08:09:21;18.37;;;2.87;;
26040;SDS011;13816;53.628;9.950;2023-04-25T08:11:50;18.00;;;3.17;;
26040;SDS011;13816;53.628;9.950;2023-04-25T08:14:22;14.10;;;2.97;;
26040;SDS011;13816;53.628;9.950;2023-04-25T08:16:49;10.50;;;2.50;;
26040;SDS011;13816;53.628;9.950;2023-04-25T08:19:18;13.30;;;3.10;;
26040;SDS011;13816;53.628;9.950;2023-04-25T08:21:46;9.77;;;2.90;;
26040;SDS011;13816;53.628;9.950;2023-04-25T08:24:17;13.20;;;2.57;;
26040;SDS011;13816;53.628;9.950;2023-04-25T08:26:45;8.93;;;2.30;;
26040;SDS011;13816;53.628;9.950;2023-04-25T08:29:15;19.73;;;3.43;;
26040;SDS011;13816;53.628;9.950;2023-04-25T08:31:43;15.73;;;4.27;;
26040;SDS011;13816;53.628;9.950;2023-04-25T08:34:13;18.40;;;3.13;;
26040;SDS011;13816;53.628;9.950;2023-04-25T08:36:47;7.87;;;2.50;;
26040;SDS011;13816;53.628;9.950;2023-04-25T08:39:22;17.37;;;3.50;;
26040;SDS011;13816;53.628;9.950;2023-04-25T08:42:09;10.13;;;3.10;;
26040;SDS011;13816;53.628;9.950;2023-04-25T08:44:38;13.10;;;3.43;;
26040;SDS011;13816;53.628;9.950;2023-04-25T08:47:05;14.03;;;3.37;;
26040;SDS011;13816;53.628;9.950;2023-04-25T08:49:40;16.97;;;3.70;;
26040;SDS011;13816;53.628;9.950;2023-04-25T08:52:14;19.93;;;3.30;;
26040;SDS011;13816;53.628;9.950;2023-04-25T08:54:43;16.60;;;2.57;;
26040;SDS011;13816;53.628;9.950;2023-04-25T08:57:18;11.20;;;3.10;;
26040;SDS011;13816;53.628;9.950;2023-04-25T08:59:47;12.10;;;2.90;;
26040;SDS011;13816;53.628;9.950;2023-04-25T09:02:17;12.07;;;3.17;;
26040;SDS011;13816;53.628;9.950;2023-04-25T09:04:48;9.87;;;2.70;;
26040;SDS011;13816;53.628;9.950;2023-04-25T09:07:16;12.53;;;2.90;;
26040;SDS011;13816;53.628;9.950;2023-04-25T09:09:47;14.03;;;3.03;;
26040;SDS011;13816;53.628;9.950;2023-04-25T09:12:20;8.30;;;2.50;;
26040;SDS011;13816;53.628;9.950;2023-04-25T09:15:01;6.07;;;2.17;;
26040;SDS011;13816;53.628;9.950;2023-04-25T09:18:02;13.23;;;2.23;;
26040;SDS011;13816;53.628;9.950;2023-04-25T09:20:47;14.93;;;2.13;;
26040;SDS011;13816;53.628;9.950;2023-04-25T09:23:26;12.50;;;2.20;;
26040;SDS011;13816;53.628;9.950;2023-04-25T09:25:53;15.60;;;3.13;;
26040;SDS011;13816;53.628;9.950;2023-04-25T09:28:24;7.27;;;1.93;;
26040;SDS011;13816;53.628;9.950;2023-04-25T09:30:55;5.07;;;2.07;;
26040;SDS011;13816;53.628;9.950;2023-04-25T09:33:33;7.97;;;2.00;;
26040;SDS011;13816;53.628;9.950;2023-04-25T09:36:06;13.63;;;2.90;;
26040;SDS011;13816;53.628;9.950;2023-04-25T09:39:03;9.03;;;2.40;;
26040;SDS011;13816;53.628;9.950;2023-04-25T09:41:46;15.17;;;3.07;;
26040;SDS011;13816;53.628;9.950;2023-04-25T09:44:13;15.47;;;3.73;;
26040;SDS011;13816;53.628;9.950;2023-04-25T09:46:42;8.17;;;2.63;;
26040;SDS011;13816;53.628;9.950;2023-04-25T09:49:19;15.13;;;2.80;;
26040;SDS011;13816;53.628;9.950;2023-04-25T09:51:58;10.27;;;2.60;;
26040;SDS011;13816;53.628;9.950;2023-04-25T09:54:52;13.87;;;2.57;;
26040;SDS011;13816;53.628;9.950;2023-04-25T09:57:25;16.33;;;3.37;;
26040;SDS011;13816;53.628;9.950;2023-04-25T09:59:55;16.87;;;3.83;;
26040;SDS011;13816;53.628;9.950;2023-04-25T10:02:24;12.50;;;3.43;;
26040;SDS011;13816;53.628;9.950;2023-04-25T10:05:01;14.77;;;5.63;;
26040;SDS011;13816;53.628;9.950;2023-04-25T10:07:38;23.40;;;4.20;;
26040;SDS011;13816;53.628;9.950;2023-04-25T10:10:12;14.00;;;2.93;;
26040;SDS011;13816;53.628;9.950;2023-04-25T10:12:39;12.10;;;2.60;;
26040;SDS011;13816;53.628;9.950;2023-04-25T10:15:09;11.27;;;2.17;;
26040;SDS011;13816;53.628;9.950;2023-04-25T10:17:37;8.13;;;1.90;;
26040;SDS011;13816;53.628;9.950;2023-04-25T10:20:06;9.00;;;2.37;;
26040;SDS011;13816;53.628;9.950;2023-04-25T10:22:38;7.87;;;2.27;;
26040;SDS011;13816;53.628;9.950;2023-04-25T10:25:08;16.47;;;2.27;;
26040;SDS011;13816;53.628;9.950;2023-04-25T10:27:36;6.13;;;2.30;;
26040;SDS011;13816;53.628;9.950;2023-04-25T10:30:04;11.33;;;1.90;;
26040;SDS011;13816;53.628;9.950;2023-04-25T10:32:42;10.90;;;2.50;;
26040;SDS011;13816;53.628;9.950;2023-04-25T10:35:14;8.90;;;2.50;;
26040;SDS011;13816;53.628;9.950;2023-04-25T10:41:02;8.27;;;1.70;;
26040;SDS011;13816;53.628;9.950;2023-04-25T10:46:01;10.03;;;2.70;;
26040;SDS011;13816;53.628;9.950;2023-04-25T10:48:30;13.67;;;2.73;;
26040;SDS011;13816;53.628;9.950;2023-04-25T10:51:10;6.80;;;2.43;;
26040;SDS011;13816;53.628;9.950;2023-04-25T10:53:37;6.20;;;1.70;;
26040;SDS011;13816;53.628;9.950;2023-04-25T10:56:18;9.57;;;2.60;;
26040;SDS011;13816;53.628;9.950;2023-04-25T10:58:46;5.87;;;2.30;;
26040;SDS011;13816;53.628;9.950;2023-04-25T11:01:14;9.80;;;3.37;;
26040;SDS011;13816;53.628;9.950;2023-04-25T11:03:42;10.80;;;2.33;;
26040;SDS011;13816;53.628;9.950;2023-04-25T11:06:23;15.60;;;3.33;;
26040;SDS011;13816;53.628;9.950;2023-04-25T11:08:55;8.80;;;2.37;;
26040;SDS011;13816;53.628;9.950;2023-04-25T11:11:22;18.77;;;2.47;;
26040;SDS011;13816;53.628;9.950;2023-04-25T11:13:50;7.50;;;1.93;;
26040;SDS011;13816;53.628;9.950;2023-04-25T11:16:17;10.60;;;1.90;;
26040;SDS011;13816;53.628;9.950;2023-04-25T11:18:59;3.70;;;1.47;;
26040;SDS011;13816;53.628;9.950;2023-04-25T11:21:27;7.20;;;1.80;;
26040;SDS011;13816;53.628;9.950;2023-04-25T11:23:56;10.77;;;2.23;;
26040;SDS011;13816;53.628;9.950;2023-04-25T11:26:24;6.27;;;2.17;;
26040;SDS011;13816;53.628;9.950;2023-04-25T11:28:55;11.13;;;2.40;;
26040;SDS011;13816;53.628;9.950;2023-04-25T11:31:27;15.00;;;2.93;;
26040;SDS011;13816;53.628;9.950;2023-04-25T11:33:56;5.40;;;2.00;;
26040;SDS011;13816;53.628;9.950;2023-04-25T11:36:24;11.70;;;2.60;;
26040;SDS011;13816;53.628;9.950;2023-04-25T11:38:52;8.23;;;2.63;;
26040;SDS011;13816;53.628;9.950;2023-04-25T11:41:20;8.07;;;2.17;;
26040;SDS011;13816;53.628;9.950;2023-04-25T11:43:48;7.33;;;1.80;;
26040;SDS011;13816;53.628;9.950;2023-04-25T11:46:18;4.80;;;2.83;;
26040;SDS011;13816;53.628;9.950;2023-04-25T11:48:46;10.73;;;2.43;;
26040;SDS011;13816;53.628;9.950;2023-04-25T11:51:14;5.40;;;1.90;;
26040;SDS011;13816;53.628;9.950;2023-04-25T11:53:42;12.83;;;2.77;;
26040;SDS011;13816;53.628;9.950;2023-04-25T11:56:13;4.77;;;1.50;;
26040;SDS011;13816;53.628;9.950;2023-04-25T11:58:57;11.40;;;2.63;;
26040;SDS011;13816;53.628;9.950;2023-04-25T12:04:39;7.73;;;1.80;;
26040;SDS011;13816;53.628;9.950;2023-04-25T12:10:10;16.87;;;1.67;;
26040;SDS011;13816;53.628;9.950;2023-04-25T12:12:48;4.63;;;1.70;;
26040;SDS011;13816;53.628;9.950;2023-04-25T12:16:01;5.70;;;1.90;;
26040;SDS011;13816;53.628;9.950;2023-04-25T12:18:32;8.77;;;1.53;;
26040;SDS011;13816;53.628;9.950;2023-04-25T12:21:06;6.23;;;1.77;;
26040;SDS011;13816;53.628;9.950;2023-04-25T12:23:34;5.53;;;1.50;;
26040;SDS011;13816;53.628;9.950;2023-04-25T12:26:01;7.37;;;1.53;;
26040;SDS011;13816;53.628;9.950;2023-04-25T12:28:29;5.97;;;1.93;;
26040;SDS011;13816;53.628;9.950;2023-04-25T12:31:03;9.83;;;2.33;;
26040;SDS011;13816;53.628;9.950;2023-04-25T12:33:32;15.27;;;2.03;;
26040;SDS011;13816;53.628;9.950;2023-04-25T12:36:00;6.33;;;2.20;;
26040;SDS011;13816;53.628;9.950;2023-04-25T12:38:34;8.40;;;1.50;;
26040;SDS011;13816;53.628;9.950;2023-04-25T12:41:02;6.43;;;1.97;;
26040;SDS011;13816;53.628;9.950;2023-04-25T12:43:30;15.63;;;2.33;;
26040;SDS011;13816;53.628;9.950;2023-04-25T12:45:57;18.13;;;2.60;;
26040;SDS011;13816;53.628;9.950;2023-04-25T12:48:24;15.80;;;2.17;;
26040;SDS011;13816;53.628;9.950;2023-04-25T12:50:52;11.53;;;2.10;;
26040;SDS011;13816;53.628;9.950;2023-04-25T12:53:20;7.43;;;1.87;;
26040;SDS011;13816;53.628;9.950;2023-04-25T12:55:48;9.80;;;3.30;;
26040;SDS011;13816;53.628;9.950;2023-04-25T12:58:16;5.53;;;1.83;;
26040;SDS011;13816;53.628;9.950;2023-04-25T13:00:44;5.40;;;1.93;;
26040;SDS011;13816;53.628;9.950;2023-04-25T13:03:12;4.07;;;1.60;;
26040;SDS011;13816;53.628;9.950;2023-04-25T13:05:39;8.50;;;2.27;;
26040;SDS011;13816;53.628;9.950;2023-04-25T13:08:07;5.00;;;1.87;;
26040;SDS011;13816;53.628;9.950;2023-04-25T13:10:35;8.17;;;2.40;;
26040;SDS011;13816;53.628;9.950;2023-04-25T13:13:03;7.90;;;2.13;;
26040;SDS011;13816;53.628;9.950;2023-04-25T13:15:30;13.27;;;2.07;;
26040;SDS011;13816;53.628;9.950;2023-04-25T13:17:58;7.27;;;2.00;;
26040;SDS011;13816;53.628;9.950;2023-04-25T13:20:26;4.77;;;1.70;;
26040;SDS011;13816;53.628;9.950;2023-04-25T13:22:53;7.33;;;1.93;;
26040;SDS011;13816;53.628;9.950;2023-04-25T13:25:21;6.27;;;2.10;;
26040;SDS011;13816;53.628;9.950;2023-04-25T13:27:49;7.13;;;2.40;;
26040;SDS011;13816;53.628;9.950;2023-04-25T13:30:16;8.80;;;2.10;;
26040;SDS011;13816;53.628;9.950;2023-04-25T13:32:43;8.17;;;2.33;;
26040;SDS011;13816;53.628;9.950;2023-04-25T13:35:11;13.03;;;2.27;;
26040;SDS011;13816;53.628;9.950;2023-04-25T13:37:40;13.23;;;2.40;;
26040;SDS011;13816;53.628;9.950;2023-04-25T13:40:08;15.07;;;3.00;;
26040;SDS011;13816;53.628;9.950;2023-04-25T13:42:37;15.60;;;2.20;;
26040;SDS011;13816;53.628;9.950;2023-04-25T13:45:05;6.70;;;2.27;;
26040;SDS011;13816;53.628;9.950;2023-04-25T13:47:33;13.17;;;3.63;;
26040;SDS011;13816;53.628;9.950;2023-04-25T13:50:01;6.77;;;2.10;;
26040;SDS011;13816;53.628;9.950;2023-04-25T13:52:30;5.93;;;1.90;;
26040;SDS011;13816;53.628;9.950;2023-04-25T13:54:57;4.77;;;1.87;;
26040;SDS011;13816;53.628;9.950;2023-04-25T13:57:24;8.60;;;1.93;;
26040;SDS011;13816;53.628;9.950;2023-04-25T13:59:52;5.70;;;1.80;;
26040;SDS011;13816;53.628;9.950;2023-04-25T14:02:20;2.70;;;1.80;;
26040;SDS011;13816;53.628;9.950;2023-04-25T14:04:47;7.57;;;1.90;;
26040;SDS011;13816;53.628;9.950;2023-04-25T14:07:15;8.53;;;2.53;;
26040;SDS011;13816;53.628;9.950;2023-04-25T14:09:42;8.23;;;2.43;;
26040;SDS011;13816;53.628;9.950;2023-04-25T14:12:09;7.27;;;2.33;;
26040;SDS011;13816;53.628;9.950;2023-04-25T14:14:37;5.37;;;1.77;;
26040;SDS011;13816;53.628;9.950;2023-04-25T14:17:06;9.83;;;2.03;;
26040;SDS011;13816;53.628;9.950;2023-04-25T14:19:33;9.30;;;2.13;;
26040;SDS011;13816;53.628;9.950;2023-04-25T14:22:00;13.10;;;1.83;;
26040;SDS011;13816;53.628;9.950;2023-04-25T14:24:28;10.63;;;3.20;;
26040;SDS011;13816;53.628;9.950;2023-04-25T14:26:55;14.30;;;2.20;;
26040;SDS011;13816;53.628;9.950;2023-04-25T14:29:23;9.63;;;2.40;;
26040;SDS011;13816;53.628;9.950;2023-04-25T14:31:54;9.70;;;2.20;;
26040;SDS011;13816;53.628;9.950;2023-04-25T14:34:23;16.97;;;2.40;;
26040;SDS011;13816;53.628;9.950;2023-04-25T14:36:51;6.63;;;1.67;;
26040;SDS011;13816;53.628;9.950;2023-04-25T14:39:19;7.73;;;2.27;;
26040;SDS011;13816;53.628;9.950;2023-04-25T14:41:46;4.80;;;1.43;;
26040;SDS011;13816;53.628;9.950;2023-04-25T14:44:14;10.90;;;2.17;;
26040;SDS011;13816;53.628;9.950;2023-04-25T14:46:41;4.90;;;1.60;;
26040;SDS011;13816;53.628;9.950;2023-04-25T14:49:09;4.27;;;1.70;;
26040;SDS011;13816;53.628;9.950;2023-04-25T14:51:36;7.13;;;1.90;;
26040;SDS011;13816;53.628;9.950;2023-04-25T14:54:04;6.77;;;1.80;;
26040;SDS011;13816;53.628;9.950;2023-04-25T14:56:31;13.00;;;1.70;;
26040;SDS011;13816;53.628;9.950;2023-04-25T14:58:58;12.87;;;1.90;;
26040;SDS011;13816;53.628;9.950;2023-04-25T15:01:26;9.20;;;2.50;;
26040;SDS011;13816;53.628;9.950;2023-04-25T15:03:53;5.80;;;2.00;;
26040;SDS011;13816;53.628;9.950;2023-04-25T15:06:21;8.23;;;2.30;;
26040;SDS011;13816;53.628;9.950;2023-04-25T15:08:49;12.10;;;2.47;;
26040;SDS011;13816;53.628;9.950;2023-04-25T15:11:19;13.03;;;2.77;;
26040;SDS011;13816;53.628;9.950;2023-04-25T15:13:47;7.10;;;1.80;;
26040;SDS011;13816;53.628;9.950;2023-04-25T15:16:14;6.27;;;1.83;;
26040;SDS011;13816;53.628;9.950;2023-04-25T15:18:46;4.60;;;1.60;;
26040;SDS011;13816;53.628;9.950;2023-04-25T15:21:13;6.20;;;2.37;;
26040;SDS011;13816;53.628;9.950;2023-04-25T15:23:41;11.80;;;2.23;;
26040;SDS011;13816;53.628;9.950;2023-04-25T15:26:08;5.90;;;2.13;;
26040;SDS011;13816;53.628;9.950;2023-04-25T15:28:35;5.30;;;2.17;;
26040;SDS011;13816;53.628;9.950;2023-04-25T15:31:03;10.73;;;2.20;;
26040;SDS011;13816;53.628;9.950;2023-04-25T15:33:30;7.60;;;2.53;;
26040;SDS011;13816;53.628;9.950;2023-04-25T15:35:58;8.00;;;1.70;;
26040;SDS011;13816;53.628;9.950;2023-04-25T15:38:26;8.27;;;1.97;;
26040;SDS011;13816;53.628;9.950;2023-04-25T15:40:53;7.80;;;2.27;;
26040;SDS011;13816;53.628;9.950;2023-04-25T15:43:20;12.87;;;3.23;;
26040;SDS011;13816;53.628;9.950;2023-04-25T15:45:48;7.33;;;2.20;;
26040;SDS011;13816;53.628;9.950;2023-04-25T15:48:15;8.57;;;2.50;;